createdAt,value
2023-03-22T00:01:28.404Z,1.90
2023-03-22T00:04:00.920Z,1.70
2023-03-22T00:06:36.563Z,1.30
2023-03-22T00:09:04.065Z,1.70
2023-03-22T00:11:47.264Z,2.03
2023-03-22T00:14:13.850Z,1.65
2023-03-22T00:17:04.135Z,1.60
2023-03-22T00:19:34.997Z,1.38
2023-03-22T00:22:01.556Z,1.70
2023-03-22T00:24:27.942Z,1.90
2023-03-22T00:26:54.398Z,2.20
2023-03-22T00:29:21.726Z,1.88
2023-03-22T00:31:48.127Z,2.00
2023-03-22T00:34:14.479Z,1.80
2023-03-22T00:36:41.790Z,2.00
2023-03-22T00:39:08.298Z,1.75
2023-03-22T00:41:35.646Z,1.85
2023-03-22T00:44:02.026Z,2.20
2023-03-22T00:46:28.859Z,1.80
2023-03-22T00:48:55.158Z,1.80
2023-03-22T00:51:21.509Z,2.45
2023-03-22T00:53:48.260Z,1.83
2023-03-22T00:56:14.587Z,1.98
2023-03-22T00:58:42.871Z,1.92
2023-03-22T01:01:10.260Z,1.52
2023-03-22T01:03:36.729Z,2.10
2023-03-22T01:06:03.132Z,2.05
2023-03-22T01:08:29.468Z,1.92
2023-03-22T01:10:55.844Z,2.40
2023-03-22T01:13:24.254Z,2.28
2023-03-22T01:15:51.410Z,2.22
2023-03-22T01:18:18.700Z,2.20
2023-03-22T01:20:44.990Z,1.98
2023-03-22T01:23:11.368Z,1.70
2023-03-22T01:25:37.713Z,2.15
2023-03-22T01:28:05.254Z,1.77
2023-03-22T01:30:31.567Z,1.98
2023-03-22T01:32:57.972Z,2.00
2023-03-22T01:35:24.349Z,1.58
2023-03-22T01:37:50.918Z,2.40
2023-03-22T01:40:17.722Z,2.20
2023-03-22T01:42:44.105Z,2.45
2023-03-22T01:45:13.629Z,1.92
2023-03-22T01:47:44.347Z,3.03
2023-03-22T01:50:10.816Z,2.08
2023-03-22T01:52:38.191Z,1.60
2023-03-22T01:55:05.987Z,1.85
2023-03-22T01:57:33.861Z,1.70
2023-03-22T02:00:00.336Z,1.77
2023-03-22T02:02:26.898Z,1.80
2023-03-22T02:04:53.340Z,1.60
2023-03-22T02:07:20.096Z,1.50
2023-03-22T02:09:46.427Z,1.45
2023-03-22T02:12:15.497Z,1.88
2023-03-22T02:14:56.562Z,2.13
2023-03-22T02:17:31.068Z,1.90
2023-03-22T02:20:12.823Z,1.92
2023-03-22T02:23:00.441Z,1.85
2023-03-22T02:26:01.117Z,2.17
2023-03-22T02:29:18.349Z,2.10
2023-03-22T02:32:06.199Z,2.47
2023-03-22T02:34:59.968Z,2.40
2023-03-22T02:37:46.088Z,3.05
2023-03-22T02:40:24.663Z,3.03
2023-03-22T02:43:17.095Z,3.42
2023-03-22T02:45:59.184Z,2.65
2023-03-22T02:49:00.727Z,3.85
2023-03-22T02:51:37.845Z,3.80
2023-03-22T02:54:12.642Z,3.60
2023-03-22T02:57:08.214Z,3.92
2023-03-22T02:59:38.596Z,4.43
2023-03-22T03:02:07.001Z,4.70
2023-03-22T03:04:37.732Z,4.97
2023-03-22T03:07:08.934Z,5.55
2023-03-22T03:09:37.106Z,4.88
2023-03-22T03:12:13.291Z,5.65
2023-03-22T03:14:39.607Z,6.20
2023-03-22T03:17:37.824Z,5.57
2023-03-22T03:20:26.664Z,5.70
2023-03-22T03:23:27.654Z,6.43
2023-03-22T03:26:15.093Z,6.07
2023-03-22T03:29:29.127Z,6.55
2023-03-22T03:32:04.645Z,6.60
2023-03-22T03:34:39.814Z,9.75
2023-03-22T03:37:14.456Z,8.25
2023-03-22T03:39:48.395Z,7.95
2023-03-22T03:42:16.795Z,8.13
2023-03-22T03:44:44.085Z,8.35
2023-03-22T03:47:11.782Z,7.45
2023-03-22T03:49:38.356Z,7.60
2023-03-22T03:52:05.166Z,7.80
2023-03-22T03:54:31.885Z,8.13
2023-03-22T03:56:58.324Z,7.50
2023-03-22T03:59:24.735Z,8.68
2023-03-22T04:01:51.042Z,7.10
2023-03-22T04:04:23.126Z,8.30
2023-03-22T04:06:49.638Z,8.10
2023-03-22T04:09:15.920Z,8.80
2023-03-22T04:11:42.821Z,8.30
2023-03-22T04:14:09.187Z,8.35
2023-03-22T04:16:35.641Z,8.75
2023-03-22T04:19:02.030Z,7.32
2023-03-22T04:21:28.323Z,8.55
2023-03-22T04:23:54.630Z,9.70
2023-03-22T04:26:21.412Z,8.45
2023-03-22T04:28:47.832Z,7.85
2023-03-22T04:31:14.335Z,8.25
2023-03-22T04:33:40.690Z,7.63
2023-03-22T04:36:08.385Z,7.72
2023-03-22T04:38:34.684Z,8.68
2023-03-22T04:41:00.975Z,8.90
2023-03-22T04:43:27.301Z,8.43
2023-03-22T04:45:53.671Z,7.63
2023-03-22T04:48:20.132Z,7.90
2023-03-22T04:50:47.576Z,8.73
2023-03-22T04:53:13.943Z,10.95
2023-03-22T04:55:40.233Z,8.50
2023-03-22T04:58:06.544Z,8.15
2023-03-22T05:00:33.006Z,7.68
2023-03-22T05:02:59.444Z,7.10
2023-03-22T05:05:25.818Z,7.43
2023-03-22T05:07:52.290Z,7.60
2023-03-22T05:10:18.616Z,6.78
2023-03-22T05:12:44.975Z,7.03
2023-03-22T05:15:11.493Z,7.88
2023-03-22T05:17:37.847Z,6.90
2023-03-22T05:20:04.482Z,7.07
2023-03-22T05:22:30.857Z,6.93
2023-03-22T05:24:57.149Z,7.82
2023-03-22T05:27:23.523Z,6.90
2023-03-22T05:29:49.796Z,6.90
2023-03-22T05:32:16.065Z,6.35
2023-03-22T05:34:42.466Z,7.25
2023-03-22T05:37:08.782Z,6.68
2023-03-22T05:39:35.112Z,5.78
2023-03-22T05:42:01.434Z,5.60
2023-03-22T05:44:27.755Z,5.70
2023-03-22T05:46:54.110Z,6.85
2023-03-22T05:49:20.440Z,6.20
2023-03-22T05:51:46.885Z,5.35
2023-03-22T05:54:13.208Z,5.90
2023-03-22T05:56:39.628Z,5.55
2023-03-22T05:59:06.103Z,5.35
2023-03-22T06:01:32.750Z,5.18
2023-03-22T06:03:59.610Z,5.32
2023-03-22T06:06:26.080Z,4.93
2023-03-22T06:08:52.366Z,4.70
2023-03-22T06:11:18.672Z,6.13
2023-03-22T06:13:44.984Z,4.78
2023-03-22T06:16:11.428Z,5.50
2023-03-22T06:18:37.795Z,5.13
2023-03-22T06:21:04.409Z,4.32
2023-03-22T06:23:30.741Z,5.13
2023-03-22T06:25:57.089Z,4.43
2023-03-22T06:28:23.440Z,4.53
2023-03-22T06:30:49.945Z,5.05
2023-03-22T06:33:16.405Z,3.92
2023-03-22T06:35:42.843Z,3.70
2023-03-22T06:38:09.272Z,4.30
2023-03-22T06:40:35.551Z,4.47
2023-03-22T06:43:05.170Z,3.83
2023-03-22T06:45:32.722Z,3.67
2023-03-22T06:47:59.977Z,3.67
2023-03-22T06:50:27.250Z,4.47
2023-03-22T06:52:53.526Z,3.10
2023-03-22T06:55:19.843Z,3.88
2023-03-22T06:57:46.172Z,3.15
2023-03-22T07:00:13.342Z,4.15
2023-03-22T07:02:39.636Z,3.25
2023-03-22T07:05:06.291Z,3.22
2023-03-22T07:07:32.719Z,3.33
2023-03-22T07:09:59.489Z,2.83
2023-03-22T07:12:25.763Z,3.15
2023-03-22T07:14:52.366Z,2.53
2023-03-22T07:17:19.699Z,3.03
2023-03-22T07:19:46.056Z,2.50
2023-03-22T07:22:12.572Z,3.00
2023-03-22T07:24:50.311Z,2.28
2023-03-22T07:27:21.011Z,2.88
2023-03-22T07:29:47.613Z,2.67
2023-03-22T07:32:14.176Z,2.80
2023-03-22T07:34:40.470Z,2.67
2023-03-22T07:37:07.033Z,2.60
2023-03-22T07:39:33.597Z,2.70
2023-03-22T07:42:00.005Z,2.72
2023-03-22T07:44:26.714Z,2.67
2023-03-22T07:46:53.156Z,2.35
2023-03-22T07:49:19.599Z,2.47
2023-03-22T07:51:45.886Z,2.55
2023-03-22T07:54:17.749Z,2.40
2023-03-22T07:56:49.257Z,2.35
2023-03-22T07:59:16.350Z,2.10
2023-03-22T08:01:43.815Z,2.20
2023-03-22T08:04:10.343Z,2.55
2023-03-22T08:06:37.291Z,2.40
2023-03-22T08:09:06.356Z,2.72
2023-03-22T08:11:32.692Z,2.17
2023-03-22T08:13:58.971Z,2.35
2023-03-22T08:16:25.352Z,2.65
2023-03-22T08:18:51.721Z,2.20
2023-03-22T08:21:18.086Z,2.17
2023-03-22T08:23:44.401Z,2.83
2023-03-22T08:26:11.172Z,2.95
2023-03-22T08:28:37.867Z,2.25
2023-03-22T08:31:14.734Z,2.40
2023-03-22T08:33:42.755Z,3.08
2023-03-22T08:36:12.132Z,3.10
2023-03-22T08:38:39.436Z,2.80
2023-03-22T08:41:05.824Z,2.45
2023-03-22T08:43:32.212Z,2.65
2023-03-22T08:45:58.742Z,2.17
2023-03-22T08:48:25.207Z,2.10
2023-03-22T08:50:51.547Z,1.90
2023-03-22T08:53:17.824Z,2.55
2023-03-22T08:55:44.224Z,3.03
2023-03-22T08:58:12.295Z,2.25
2023-03-22T09:00:48.167Z,2.92
2023-03-22T09:03:15.200Z,2.28
2023-03-22T09:05:41.812Z,2.92
2023-03-22T09:08:08.567Z,2.83
2023-03-22T09:10:37.623Z,3.00
2023-03-22T09:13:04.019Z,2.70
2023-03-22T09:15:30.313Z,2.80
2023-03-22T09:17:56.667Z,3.13
2023-03-22T09:20:23.097Z,3.28
2023-03-22T09:22:49.384Z,2.60
2023-03-22T09:25:15.768Z,3.30
2023-03-22T09:27:42.252Z,3.25
2023-03-22T09:30:09.276Z,2.88
2023-03-22T09:32:35.573Z,2.75
2023-03-22T09:35:01.966Z,2.83
2023-03-22T09:37:28.266Z,3.78
2023-03-22T09:39:54.578Z,3.05
2023-03-22T09:42:31.334Z,3.08
2023-03-22T09:44:58.650Z,2.78
2023-03-22T09:47:44.270Z,3.60
2023-03-22T09:50:27.717Z,2.40
2023-03-22T09:52:54.562Z,3.22
2023-03-22T09:55:57.640Z,2.60
2023-03-22T09:58:56.091Z,3.13
2023-03-22T10:01:41.955Z,3.63
2023-03-22T10:04:36.723Z,3.22
2023-03-22T10:07:14.835Z,3.00
2023-03-22T10:10:15.042Z,3.70
2023-03-22T10:12:59.788Z,3.55
2023-03-22T10:15:35.379Z,3.17
2023-03-22T10:18:05.499Z,3.10
2023-03-22T10:20:45.651Z,3.58
2023-03-22T10:23:19.877Z,3.30
2023-03-22T10:25:47.219Z,3.17
2023-03-22T10:28:20.959Z,2.33
2023-03-22T10:30:53.599Z,2.85
2023-03-22T10:33:49.255Z,2.80
2023-03-22T10:36:17.128Z,2.75
2023-03-22T10:38:52.023Z,3.53
2023-03-22T10:41:21.259Z,3.25
2023-03-22T10:43:54.731Z,2.70
2023-03-22T10:46:24.844Z,3.60
2023-03-22T10:48:54.772Z,4.05
2023-03-22T10:51:29.413Z,2.40
2023-03-22T10:53:56.705Z,3.28
2023-03-22T10:56:23.063Z,1.95
2023-03-22T10:58:50.593Z,2.22
2023-03-22T11:01:26.488Z,2.35
2023-03-22T11:03:57.220Z,2.58
2023-03-22T11:06:26.606Z,3.13
2023-03-22T11:08:57.425Z,3.25
2023-03-22T11:11:25.644Z,3.20
2023-03-22T11:14:08.194Z,2.85
2023-03-22T11:16:44.426Z,3.20
2023-03-22T11:19:17.807Z,3.40
2023-03-22T11:21:45.348Z,3.30
2023-03-22T11:24:14.020Z,2.75
2023-03-22T11:26:41.684Z,3.08
2023-03-22T11:29:12.103Z,3.42
2023-03-22T11:32:20.489Z,2.75
2023-03-22T11:34:46.811Z,3.75
2023-03-22T11:37:18.224Z,3.10
2023-03-22T11:39:47.992Z,2.70
2023-03-22T11:42:19.265Z,2.63
2023-03-22T11:44:45.834Z,3.33
2023-03-22T11:47:13.476Z,2.45
2023-03-22T11:49:47.001Z,2.88
2023-03-22T11:52:19.758Z,2.53
2023-03-22T11:54:47.146Z,3.17
2023-03-22T11:57:17.170Z,3.20
2023-03-22T11:59:55.510Z,2.65
2023-03-22T12:02:21.834Z,2.83
2023-03-22T12:04:52.856Z,2.40
2023-03-22T12:07:20.987Z,2.60
2023-03-22T12:10:15.339Z,3.42
2023-03-22T12:12:51.224Z,2.78
2023-03-22T12:15:23.259Z,2.58
2023-03-22T12:18:13.716Z,2.42
2023-03-22T12:20:51.926Z,3.38
2023-03-22T12:23:21.054Z,2.55
2023-03-22T12:25:55.556Z,2.40
2023-03-22T12:28:28.035Z,2.42
2023-03-22T12:30:56.255Z,2.75
2023-03-22T12:33:27.495Z,2.85
2023-03-22T12:36:05.634Z,3.17
2023-03-22T12:38:52.595Z,2.90
2023-03-22T12:41:32.158Z,3.17
2023-03-22T12:44:10.585Z,2.92
2023-03-22T12:46:48.897Z,3.22
2023-03-22T12:49:37.061Z,2.90
2023-03-22T12:52:17.813Z,3.42
2023-03-22T12:54:46.180Z,3.38
2023-03-22T12:57:15.199Z,2.83
2023-03-22T12:59:44.059Z,3.05
2023-03-22T13:02:28.059Z,2.65
2023-03-22T13:04:56.640Z,2.80
2023-03-22T13:07:52.155Z,3.13
2023-03-22T13:10:30.663Z,3.00
2023-03-22T13:13:31.484Z,3.08
2023-03-22T13:16:10.105Z,3.28
2023-03-22T13:18:36.392Z,2.95
2023-03-22T13:21:20.753Z,3.40
2023-03-22T13:24:10.177Z,3.38
2023-03-22T13:26:53.740Z,2.70
2023-03-22T13:29:22.267Z,3.15
2023-03-22T13:31:51.458Z,3.25
2023-03-22T13:34:30.298Z,3.63
2023-03-22T13:36:57.860Z,3.50
2023-03-22T13:39:25.302Z,3.33
2023-03-22T13:42:18.973Z,3.50
2023-03-22T13:44:51.816Z,3.22
2023-03-22T13:47:34.359Z,3.40
2023-03-22T13:50:07.429Z,3.78
2023-03-22T13:52:38.413Z,3.58
2023-03-22T13:55:18.526Z,2.90
2023-03-22T13:57:47.122Z,4.20
2023-03-22T14:00:35.638Z,3.42
2023-03-22T14:03:13.629Z,3.40
2023-03-22T14:05:42.347Z,3.60
2023-03-22T14:08:20.848Z,3.83
2023-03-22T14:10:58.708Z,4.13
2023-03-22T14:13:41.836Z,5.07
2023-03-22T14:16:48.238Z,4.60
2023-03-22T14:19:21.844Z,4.28
